Time;durP1;ratioP1;P1;durP2;ratioP2;P2;SDS_P1;SDS_P2;PMS_P1;PMS_P2;Temp;Humidity;BMP_temperature;BMP_pressure;BME280_temperature;BME280_humidity;BME280_pressure;Samples;Min_cycle;Max_cycle;Signal;HPM_P1;HPM_P2
2023/04/21 00:01:13;;;;;;;31.90;17.40;;;;;;;7.98;74.81;100561.75;129844;1262;114728;-70
2023/04/21 00:04:16;;;;;;;29.80;17.50;;;;;;;7.99;74.98;100559.42;129832;1262;116319;-69
2023/04/21 00:07:19;;;;;;;35.60;17.40;;;;;;;7.97;74.69;100559.65;129866;1274;114859;-69
2023/04/21 00:10:22;;;;;;;35.60;17.00;;;;;;;7.97;74.50;100556.29;129418;1262;115412;-69
2023/04/21 00:13:25;;;;;;;30.40;17.80;;;;;;;7.97;74.89;100550.58;129434;1258;114835;-66
2023/04/21 00:16:27;;;;;;;33.60;17.30;;;;;;;7.98;74.59;100551.81;129550;1259;114840;-69
2023/04/21 00:19:30;;;;;;;28.90;18.40;;;;;;;7.97;74.82;100550.41;129394;1277;114809;-69
2023/04/21 00:22:33;;;;;;;32.00;17.80;;;;;;;7.96;74.56;100550.97;129435;1263;114822;-67
2023/04/21 00:25:36;;;;;;;32.50;17.40;;;;;;;7.93;75.08;100548.77;129318;1274;114696;-69
2023/04/21 00:28:38;;;;;;;42.30;19.50;;;;;;;7.92;74.69;100547.38;129435;1281;114734;-68
2023/04/21 00:31:40;;;;;;;35.00;18.50;;;;;;;7.91;74.64;100543.50;129403;1281;114729;-69
2023/04/21 00:34:42;;;;;;;28.20;17.70;;;;;;;7.89;74.64;100543.55;129058;1264;114810;-69
2023/04/21 00:37:45;;;;;;;36.60;20.30;;;;;;;7.87;74.69;100543.79;129327;1281;114744;-69
2023/04/21 00:40:47;;;;;;;29.90;18.20;;;;;;;7.86;74.60;100550.23;129431;1271;114847;-69
2023/04/21 00:44:00;;;;;;;32.90;17.40;;;;;;;7.86;74.85;100549.00;129446;1264;114713;-70
2023/04/21 00:47:03;;;;;;;27.70;17.90;;;;;;;7.86;74.74;100546.35;129448;1281;128998;-69
2023/04/21 00:50:06;;;;;;;34.00;18.70;;;;;;;7.85;74.68;100542.65;129411;1262;115421;-68
2023/04/21 00:53:08;;;;;;;30.30;17.50;;;;;;;7.83;74.64;100544.83;129479;1259;114759;-69
2023/04/21 00:56:11;;;;;;;34.60;17.90;;;;;;;7.82;74.40;100545.59;129459;1262;114806;-69
2023/04/21 00:59:13;;;;;;;35.60;17.70;;;;;;;7.80;74.60;100546.19;129530;1261;114773;-67
2023/04/21 01:02:16;;;;;;;29.30;18.70;;;;;;;7.78;74.43;100539.35;129469;1259;115683;-69
2023/04/21 01:05:19;;;;;;;34.00;18.70;;;;;;;7.77;74.25;100539.02;129439;1279;128344;-69
2023/04/21 01:08:21;;;;;;;29.10;17.30;;;;;;;7.75;74.20;100537.30;129363;1272;114821;-68
2023/04/21 01:11:24;;;;;;;32.50;18.60;;;;;;;7.74;74.76;100540.86;129417;1274;114809;-71
2023/04/21 01:14:26;;;;;;;31.60;18.30;;;;;;;7.75;74.51;100545.99;129494;1263;114709;-67
2023/04/21 01:17:30;;;;;;;35.50;17.60;;;;;;;7.77;74.84;100547.52;129360;1280;114950;-67
2023/04/21 01:20:32;;;;;;;28.40;16.70;;;;;;;7.81;74.13;100545.79;129240;1267;114887;-67
2023/04/21 01:23:34;;;;;;;34.30;18.60;;;;;;;7.85;74.08;100545.32;129185;1262;411146;-68
2023/04/21 01:26:37;;;;;;;33.60;18.50;;;;;;;7.87;74.16;100542.75;129350;1262;114897;-67
2023/04/21 01:29:40;;;;;;;33.30;18.60;;;;;;;7.89;74.42;100538.94;129532;1261;114772;-68
2023/04/21 01:32:42;;;;;;;36.90;19.00;;;;;;;7.89;73.88;100536.08;129438;1262;114677;-69
2023/04/21 01:35:45;;;;;;;38.50;19.70;;;;;;;7.89;73.83;100535.01;129337;1262;114713;-67
2023/04/21 01:38:47;;;;;;;38.80;18.90;;;;;;;7.88;73.80;100537.90;129683;1281;115341;-69
2023/04/21 01:41:50;;;;;;;32.70;19.30;;;;;;;7.86;73.77;100539.73;129529;1259;114786;-69
2023/04/21 01:44:53;;;;;;;35.10;20.00;;;;;;;7.83;73.69;100542.00;129389;1261;128750;-66
2023/04/21 01:47:55;;;;;;;40.30;19.10;;;;;;;7.80;73.73;100544.77;129498;1261;114719;-69
2023/04/21 01:50:58;;;;;;;35.10;18.90;;;;;;;7.78;73.67;100544.64;129498;1259;114649;-69
2023/04/21 01:54:00;;;;;;;33.20;18.40;;;;;;;7.78;73.40;100543.62;129432;1274;114754;-69
2023/04/21 01:57:03;;;;;;;30.00;17.80;;;;;;;7.77;73.40;100539.02;129468;1264;114719;-69
2023/04/21 02:00:06;;;;;;;39.00;19.20;;;;;;;7.78;73.55;100538.98;129404;1281;114822;-69
2023/04/21 02:03:08;;;;;;;31.20;17.90;;;;;;;7.79;73.29;100539.48;129334;1264;115099;-69
2023/04/21 02:06:12;;;;;;;33.10;18.60;;;;;;;7.79;73.46;100538.41;129460;1259;114834;-69
2023/04/21 02:09:15;;;;;;;44.30;18.90;;;;;;;7.79;73.19;100541.23;129438;1258;114737;-70
2023/04/21 02:12:17;;;;;;;35.40;19.00;;;;;;;7.79;73.25;100538.93;129414;1264;115244;-69
2023/04/21 02:15:20;;;;;;;31.00;17.80;;;;;;;7.78;73.00;100538.08;129542;1260;114775;-69
2023/04/21 02:18:23;;;;;;;33.50;19.20;;;;;;;7.74;72.87;100539.98;129298;1278;115035;-69
2023/04/21 02:21:26;;;;;;;33.70;19.50;;;;;;;7.71;73.06;100537.79;129478;1281;114779;-69
2023/04/21 02:24:28;;;;;;;28.50;18.00;;;;;;;7.66;73.13;100538.50;129442;1278;114751;-69
2023/04/21 02:27:31;;;;;;;31.50;19.40;;;;;;;7.60;72.70;100536.36;129377;1262;115003;-69
2023/04/21 02:30:34;;;;;;;31.00;19.00;;;;;;;7.55;72.71;100536.16;129453;1264;115408;-67
2023/04/21 02:33:36;;;;;;;32.40;17.90;;;;;;;7.52;72.52;100537.36;129413;1264;114805;-68
2023/04/21 02:36:38;;;;;;;30.10;17.90;;;;;;;7.50;72.59;100536.87;129495;1262;114731;-70
2023/04/21 02:39:42;;;;;;;25.60;17.50;;;;;;;7.46;72.69;100538.77;129461;1259;114844;-71
2023/04/21 02:42:44;;;;;;;28.60;17.70;;;;;;;7.41;72.44;100541.95;129465;1260;114781;-68
2023/04/21 02:45:46;;;;;;;35.90;18.40;;;;;;;7.37;72.55;100548.67;129487;1259;114748;-69
2023/04/21 02:48:48;;;;;;;26.00;17.50;;;;;;;7.35;72.65;100547.33;129260;1259;114866;-68
2023/04/21 02:51:50;;;;;;;31.80;17.90;;;;;;;7.32;72.38;100550.08;129454;1259;114751;-70
2023/04/21 02:54:52;;;;;;;33.50;17.40;;;;;;;7.27;72.39;100550.73;129430;1259;114805;-68
2023/04/21 02:57:55;;;;;;;32.70;17.70;;;;;;;7.23;72.39;100552.64;129219;1260;116257;-69
2023/04/21 03:00:57;;;;;;;28.30;17.30;;;;;;;7.20;72.48;100545.66;129484;1262;114723;-69
2023/04/21 03:04:00;;;;;;;29.70;18.20;;;;;;;7.15;72.43;100550.41;129468;1262;114848;-66
2023/04/21 03:07:03;;;;;;;33.20;17.40;;;;;;;7.12;72.51;100546.78;129526;1261;114731;-69
2023/04/21 03:10:06;;;;;;;30.20;17.90;;;;;;;7.10;72.33;100552.53;129376;1259;114915;-68
2023/04/21 03:13:08;;;;;;;35.90;17.80;;;;;;;7.10;72.67;100554.13;129645;1259;114804;-68
2023/04/21 03:16:12;;;;;;;35.80;18.50;;;;;;;7.10;72.51;100557.33;129875;1261;114853;-69
2023/04/21 03:19:14;;;;;;;31.40;18.60;;;;;;;7.08;72.53;100560.41;129487;1261;114730;-70
2023/04/21 03:22:16;;;;;;;30.90;19.00;;;;;;;7.06;72.30;100564.38;129445;1268;114752;-68
2023/04/21 03:25:19;;;;;;;28.60;18.70;;;;;;;6.99;72.47;100565.29;129497;1261;115177;-70
2023/04/21 03:28:22;;;;;;;31.70;19.40;;;;;;;6.94;72.34;100561.91;129444;1259;115458;-70
2023/04/21 03:31:25;;;;;;;37.10;20.70;;;;;;;6.89;72.49;100565.79;129511;1260;114778;-67
2023/04/21 03:34:27;;;;;;;30.20;19.30;;;;;;;6.82;72.55;100565.47;129531;1264;114785;-69
2023/04/21 03:37:30;;;;;;;31.70;18.70;;;;;;;6.73;72.11;100566.61;129461;1261;114734;-70
2023/04/21 03:40:32;;;;;;;31.80;20.40;;;;;;;6.63;72.18;100567.60;129424;1261;128664;-69
2023/04/21 03:43:35;;;;;;;38.30;20.20;;;;;;;6.54;72.28;100568.39;129355;1262;114752;-66
2023/04/21 03:46:37;;;;;;;30.30;19.50;;;;;;;6.45;72.42;100570.08;129565;1258;114781;-68
2023/04/21 03:49:39;;;;;;;34.20;21.00;;;;;;;6.36;72.36;100568.35;129668;1259;114793;-71
2023/04/21 03:52:41;;;;;;;29.60;20.10;;;;;;;6.26;72.41;100574.30;129365;1262;115142;-69
2023/04/21 03:55:47;;;;;;;33.70;21.00;;;;;;;6.18;72.42;100579.48;129569;1259;115155;-69
2023/04/21 03:58:50;;;;;;;32.80;21.00;;;;;;;6.11;72.71;100583.59;129416;1264;114780;-69
2023/04/21 04:01:52;;;;;;;37.40;21.40;;;;;;;6.03;72.72;100580.06;129323;1265;114795;-69
2023/04/21 04:04:55;;;;;;;34.10;21.40;;;;;;;5.98;72.86;100582.65;129492;1261;115409;-69
2023/04/21 04:07:57;;;;;;;39.30;21.80;;;;;;;5.91;72.83;100589.38;129436;1281;115228;-69
2023/04/21 04:10:59;;;;;;;37.20;21.60;;;;;;;5.86;73.08;100586.32;129370;1281;114789;-68
2023/04/21 04:14:02;;;;;;;32.70;20.10;;;;;;;5.82;73.11;100591.19;129463;1261;114748;-68
2023/04/21 04:17:04;;;;;;;32.90;21.20;;;;;;;5.80;73.22;100593.20;129626;1262;114800;-65
2023/04/21 04:20:07;;;;;;;34.50;20.60;;;;;;;5.77;73.20;100595.23;129644;1261;114722;-69
2023/04/21 04:23:10;;;;;;;36.00;22.00;;;;;;;5.76;73.38;100594.36;129600;1262;114778;-69
2023/04/21 04:26:12;;;;;;;32.00;21.20;;;;;;;5.75;73.49;100595.27;129776;1275;114752;-67
2023/04/21 04:29:15;;;;;;;36.60;21.40;;;;;;;5.76;73.45;100602.52;129586;1281;115111;-67
2023/04/21 04:32:17;;;;;;;32.10;21.30;;;;;;;5.77;73.62;100600.20;129236;1259;114930;-68
2023/04/21 04:35:20;;;;;;;32.90;20.40;;;;;;;5.80;73.84;100599.77;129609;1259;115213;-69
2023/04/21 04:38:23;;;;;;;35.90;21.40;;;;;;;5.83;73.89;100598.09;129897;1259;115211;-67
2023/04/21 04:41:25;;;;;;;29.80;20.20;;;;;;;5.88;73.87;100599.22;129718;1259;115402;-69
2023/04/21 04:44:28;;;;;;;34.70;22.10;;;;;;;5.93;74.05;100597.84;129620;1261;114712;-66
2023/04/21 04:47:31;;;;;;;35.70;21.90;;;;;;;6.01;74.24;100598.37;129774;1273;115300;-67
2023/04/21 04:50:33;;;;;;;37.80;21.60;;;;;;;6.12;74.28;100598.63;129618;1258;114729;-70
2023/04/21 04:53:36;;;;;;;32.60;21.90;;;;;;;6.26;74.61;100597.02;129508;1261;114839;-69
2023/04/21 04:56:39;;;;;;;32.40;21.70;;;;;;;6.47;74.68;100597.33;129665;1258;114731;-67
2023/04/21 04:59:41;;;;;;;33.20;21.10;;;;;;;6.73;75.01;100600.14;129551;1262;114797;-69
2023/04/21 05:02:44;;;;;;;30.10;19.20;;;;;;;7.04;75.02;100601.73;129819;1261;114803;-69
2023/04/21 05:05:46;;;;;;;39.40;21.90;;;;;;;7.39;74.96;100597.99;129474;1260;115348;-71
2023/04/21 05:08:49;;;;;;;34.90;21.50;;;;;;;7.79;74.89;100594.41;129636;1258;114748;-71
2023/04/21 05:11:51;;;;;;;30.20;19.30;;;;;;;8.26;74.96;100589.07;129533;1274;114756;-70
2023/04/21 05:14:53;;;;;;;37.30;20.60;;;;;;;8.76;74.74;100588.90;129524;1261;114655;-70
2023/04/21 05:17:56;;;;;;;36.30;21.20;;;;;;;9.26;74.40;100593.43;129472;1263;114790;-70
2023/04/21 05:20:58;;;;;;;36.20;22.10;;;;;;;9.72;73.74;100595.69;129586;1264;114639;-72
2023/04/21 05:24:01;;;;;;;40.50;25.00;;;;;;;10.14;73.27;100591.27;129451;1281;129199;-73
2023/04/21 05:27:03;;;;;;;42.60;24.50;;;;;;;10.47;72.18;100586.25;129557;1280;114827;-71
2023/04/21 05:30:07;;;;;;;33.50;21.80;;;;;;;10.71;71.64;100593.77;129545;1261;114742;-71
2023/04/21 05:33:10;;;;;;;33.50;19.00;;;;;;;10.83;70.71;100589.83;129592;1259;115254;-71
2023/04/21 05:36:12;;;;;;;34.60;20.70;;;;;;;10.92;69.96;100588.17;129663;1261;115336;-67
2023/04/21 05:39:16;;;;;;;35.30;20.70;;;;;;;10.98;69.89;100588.11;129849;1262;114789;-66
2023/04/21 05:42:19;;;;;;;33.70;20.70;;;;;;;11.00;69.44;100588.16;129615;1261;128781;-70
2023/04/21 05:45:21;;;;;;;30.40;20.30;;;;;;;10.99;68.50;100591.07;129635;1263;114659;-70
2023/04/21 05:48:24;;;;;;;32.60;20.10;;;;;;;11.01;68.02;100590.63;129553;1258;114733;-65
2023/04/21 05:51:26;;;;;;;35.30;20.30;;;;;;;11.17;68.34;100591.50;129491;1261;114851;-67
2023/04/21 05:54:29;;;;;;;40.80;20.50;;;;;;;11.32;67.55;100590.41;129565;1264;115006;-69
2023/04/21 05:57:31;;;;;;;31.70;20.10;;;;;;;11.44;67.84;100588.56;129488;1261;114728;-70
2023/04/21 06:00:33;;;;;;;31.50;20.50;;;;;;;11.63;68.15;100587.27;129490;1273;114820;-66
2023/04/21 06:03:36;;;;;;;36.70;19.50;;;;;;;11.85;67.37;100580.52;129646;1275;114892;-70
2023/04/21 06:06:38;;;;;;;41.30;20.80;;;;;;;12.04;67.06;100577.42;129386;1261;115238;-70
2023/04/21 06:09:41;;;;;;;27.10;17.90;;;;;;;12.37;67.03;100577.36;129757;1261;114721;-70
2023/04/21 06:12:43;;;;;;;33.00;17.80;;;;;;;12.86;66.53;100572.77;129877;1259;114856;-68
2023/04/21 06:15:45;;;;;;;31.30;17.60;;;;;;;13.38;66.10;100572.55;129598;1259;114705;-68
2023/04/21 06:18:47;;;;;;;30.00;16.40;;;;;;;13.94;64.64;100577.09;129171;1262;114922;-67
2023/04/21 06:21:50;;;;;;;27.70;17.50;;;;;;;14.48;64.53;100576.90;129510;1273;114692;-71
2023/04/21 06:24:52;;;;;;;31.20;16.80;;;;;;;15.03;64.08;100570.42;129395;1259;115416;-69
2023/04/21 06:27:55;;;;;;;25.20;15.30;;;;;;;15.53;63.45;100569.02;129591;1261;114713;-70
2023/04/21 06:30:59;;;;;;;24.00;15.30;;;;;;;16.02;62.50;100568.70;129522;1259;114740;-69
2023/04/21 06:34:01;;;;;;;21.70;14.60;;;;;;;16.47;61.64;100571.35;129553;1259;115346;-65
2023/04/21 06:37:03;;;;;;;21.90;13.50;;;;;;;16.90;60.46;100571.79;129534;1262;114779;-66
2023/04/21 06:40:07;;;;;;;25.10;15.80;;;;;;;17.23;59.78;100572.72;129609;1275;114840;-65
2023/04/21 06:43:09;;;;;;;19.00;14.30;;;;;;;17.51;58.65;100570.96;129369;1281;127674;-66
2023/04/21 06:46:12;;;;;;;22.00;14.90;;;;;;;17.73;58.24;100571.54;129565;1261;114820;-70
2023/04/21 06:49:14;;;;;;;23.40;14.70;;;;;;;17.91;57.96;100571.98;129755;1261;114635;-69
2023/04/21 06:52:17;;;;;;;16.90;13.90;;;;;;;18.08;57.22;100568.01;129630;1261;114690;-70
2023/04/21 06:55:20;;;;;;;19.30;14.20;;;;;;;18.22;56.16;100563.87;129746;1261;114830;-66
2023/04/21 06:58:22;;;;;;;20.20;14.50;;;;;;;18.31;55.52;100564.42;130690;1259;114715;-66
2023/04/21 07:01:24;;;;;;;19.70;13.70;;;;;;;18.27;55.14;100567.16;131525;1261;114824;-65
2023/04/21 07:04:30;;;;;;;20.10;13.50;;;;;;;18.25;55.12;100564.00;131085;1259;115412;-65
2023/04/21 07:07:33;;;;;;;21.10;14.90;;;;;;;18.40;55.41;100563.41;129346;1264;115334;-65
2023/04/21 07:10:35;;;;;;;20.00;14.30;;;;;;;18.58;54.81;100567.63;129889;1261;115094;-73
2023/04/21 07:13:38;;;;;;;25.80;16.30;;;;;;;18.74;53.90;100567.27;129922;1261;114937;-68
2023/04/21 07:16:40;;;;;;;18.70;14.00;;;;;;;18.82;53.39;100565.89;129618;1262;114725;-72
2023/04/21 07:19:42;;;;;;;22.10;13.50;;;;;;;18.94;53.05;100566.91;129582;1281;114716;-73
2023/04/21 07:22:45;;;;;;;19.70;14.00;;;;;;;19.09;52.67;100566.42;129490;1262;114757;-72
2023/04/21 07:25:47;;;;;;;18.60;14.80;;;;;;;19.27;52.08;100567.69;129791;1281;114729;-70
2023/04/21 07:28:51;;;;;;;18.80;14.30;;;;;;;19.41;52.19;100564.21;129682;1281;115536;-70
2023/04/21 07:31:55;;;;;;;21.20;14.20;;;;;;;19.75;52.11;100564.30;129390;1264;115350;-67
2023/04/21 07:34:57;;;;;;;19.90;13.60;;;;;;;20.03;51.72;100558.73;129331;1262;114872;-71
2023/04/21 07:38:00;;;;;;;20.20;14.10;;;;;;;20.30;51.13;100560.61;129772;1261;114766;-73
2023/04/21 07:41:02;;;;;;;17.90;13.90;;;;;;;20.62;50.72;100560.91;129451;1259;115089;-73
2023/04/21 07:44:05;;;;;;;21.30;13.70;;;;;;;20.68;49.94;100560.35;129455;1260;115462;-74
2023/04/21 07:47:07;;;;;;;20.60;13.20;;;;;;;20.80;49.54;100561.33;129465;1281;115305;-71
2023/04/21 07:50:09;;;;;;;16.70;13.30;;;;;;;21.00;48.93;100560.86;129441;1262;115332;-74
2023/04/21 07:53:12;;;;;;;17.40;12.40;;;;;;;21.03;48.42;100560.74;129542;1261;114797;-72
2023/04/21 07:56:15;;;;;;;16.00;13.70;;;;;;;21.30;48.42;100561.43;129757;1281;114786;-72
2023/04/21 07:59:17;;;;;;;19.00;13.50;;;;;;;21.63;48.08;100561.70;130068;1281;114730;-73
2023/04/21 08:02:19;;;;;;;20.30;14.30;;;;;;;21.78;47.13;100562.70;129356;1264;114733;-73
2023/04/21 08:05:22;;;;;;;20.10;13.60;;;;;;;21.93;46.86;100558.30;129538;1262;114709;-73
2023/04/21 08:08:24;;;;;;;16.20;12.60;;;;;;;22.28;47.48;100556.81;129320;1266;116438;-67
2023/04/21 08:11:27;;;;;;;18.80;13.40;;;;;;;22.69;46.72;100557.27;129467;1261;114725;-73
2023/04/21 08:14:29;;;;;;;21.30;12.80;;;;;;;22.93;46.07;100557.16;130009;1261;115351;-70
2023/04/21 08:17:32;;;;;;;19.30;13.10;;;;;;;23.26;45.79;100553.03;130041;1277;115114;-68
2023/04/21 08:20:34;;;;;;;18.30;13.30;;;;;;;23.49;45.17;100552.35;129831;1278;114695;-73
2023/04/21 08:23:37;;;;;;;17.40;12.60;;;;;;;23.47;44.66;100552.40;129805;1261;114764;-70
2023/04/21 08:26:39;;;;;;;18.50;13.00;;;;;;;23.48;44.65;100548.27;129947;1261;115400;-71
2023/04/21 08:29:41;;;;;;;17.90;13.20;;;;;;;23.60;44.22;100543.06;129821;1261;115174;-72
2023/04/21 08:32:44;;;;;;;22.70;12.30;;;;;;;23.70;44.04;100545.71;129438;1264;114713;-73
2023/04/21 08:35:46;;;;;;;19.10;13.40;;;;;;;23.87;43.49;100540.38;129764;1281;114732;-74
2023/04/21 08:38:49;;;;;;;16.70;13.60;;;;;;;23.78;43.69;100539.84;129461;1281;115403;-71
2023/04/21 08:41:52;;;;;;;18.20;13.50;;;;;;;23.81;42.95;100539.33;129616;1261;114717;-73
2023/04/21 08:44:55;;;;;;;19.30;13.00;;;;;;;23.59;42.31;100538.13;129330;1281;128381;-74
2023/04/21 08:47:59;;;;;;;23.80;13.00;;;;;;;23.31;42.46;100537.05;129511;1280;114969;-73
2023/04/21 08:51:01;;;;;;;20.10;13.00;;;;;;;23.19;42.85;100537.66;129589;1261;115412;-73
2023/04/21 08:54:04;;;;;;;17.30;12.10;;;;;;;23.09;42.45;100533.70;129672;1259;114825;-73
2023/04/21 08:57:06;;;;;;;17.90;12.40;;;;;;;22.86;42.93;100535.94;129552;1278;115250;-73
2023/04/21 09:00:09;;;;;;;16.60;12.10;;;;;;;22.81;42.67;100536.16;129607;1281;114732;-74
2023/04/21 09:03:11;;;;;;;24.00;11.90;;;;;;;22.59;42.50;100535.85;129251;1266;126626;-73
2023/04/21 09:06:14;;;;;;;18.60;11.40;;;;;;;22.42;42.10;100534.79;129560;1259;114679;-74
2023/04/21 09:09:16;;;;;;;16.70;11.20;;;;;;;22.28;41.99;100534.26;129488;1281;114733;-73
2023/04/21 09:12:18;;;;;;;14.40;10.50;;;;;;;22.08;41.66;100528.50;129525;1261;115413;-72
2023/04/21 09:15:21;;;;;;;18.40;10.40;;;;;;;21.96;41.60;100528.00;129610;1261;114819;-72
2023/04/21 09:18:26;;;;;;;14.70;10.40;;;;;;;21.88;41.52;100522.61;129553;1259;115172;-72
2023/04/21 09:21:30;;;;;;;15.00;10.40;;;;;;;21.84;41.53;100522.73;129360;1277;127848;-73
2023/04/21 09:24:33;;;;;;;12.30;9.80;;;;;;;21.88;41.52;100520.39;129485;1262;114784;-73
2023/04/21 09:27:36;;;;;;;14.30;9.80;;;;;;;21.80;40.74;100516.16;129586;1261;114722;-73
2023/04/21 09:30:40;;;;;;;13.40;9.80;;;;;;;21.73;40.83;100517.44;129217;1259;114842;-73
2023/04/21 09:33:48;;;;;;;16.00;9.90;;;;;;;21.63;40.45;100512.12;129566;1261;115035;-70
2023/04/21 09:37:02;;;;;;;15.90;10.00;;;;;;;21.50;40.29;100511.66;129324;1267;127872;-71
2023/04/21 09:40:05;;;;;;;20.80;10.00;;;;;;;21.35;40.00;100512.06;129819;1259;114657;-73
2023/04/21 09:43:08;;;;;;;14.30;10.10;;;;;;;21.13;39.39;100513.23;129373;1277;114804;-72
2023/04/21 09:46:11;;;;;;;19.90;10.30;;;;;;;20.86;39.87;100509.61;129795;1261;114726;-71
2023/04/21 09:49:18;;;;;;;15.70;10.80;;;;;;;20.66;40.27;100504.98;129689;1281;114718;-72
2023/04/21 09:52:21;;;;;;;17.00;10.30;;;;;;;20.53;40.48;100506.33;129394;1281;128888;-71
2023/04/21 09:55:28;;;;;;;14.40;11.10;;;;;;;20.46;40.91;100502.98;129546;1263;114803;-69
2023/04/21 09:58:35;;;;;;;20.30;11.10;;;;;;;20.42;40.90;100499.34;129766;1260;115184;-72
2023/04/21 10:01:37;;;;;;;12.40;9.00;;;;;;;20.40;40.56;100498.64;129699;1259;114740;-70
2023/04/21 10:04:41;;;;;;;11.40;8.20;;;;;;;20.37;39.52;100494.36;129590;1259;115246;-72
2023/04/21 10:07:45;;;;;;;11.60;8.90;;;;;;;20.28;39.84;100486.39;129547;1281;128819;-72
2023/04/21 10:10:47;;;;;;;16.20;8.70;;;;;;;20.25;39.56;100487.76;129736;1281;115257;-70
2023/04/21 10:13:50;;;;;;;12.10;8.40;;;;;;;20.15;38.27;100480.83;129704;1262;115180;-71
2023/04/21 10:17:16;;;;;;;17.30;10.30;;;;;;;20.08;39.56;100479.77;129706;1261;114718;-72
2023/04/21 10:20:20;;;;;;;12.50;9.40;;;;;;;20.10;39.42;100483.92;129452;1262;114835;-72
2023/04/21 10:23:48;;;;;;;16.60;9.40;;;;;;;20.02;38.51;100483.95;129459;1281;128818;-72
2023/04/21 10:26:51;;;;;;;11.70;8.60;;;;;;;19.89;38.65;100478.52;129472;1262;115238;-71
2023/04/21 10:29:53;;;;;;;13.00;8.20;;;;;;;19.87;39.21;100472.34;129472;1261;115062;-70
2023/04/21 10:33:05;;;;;;;12.50;8.20;;;;;;;19.94;38.74;100470.83;129591;1261;114722;-71
2023/04/21 10:36:12;;;;;;;10.00;6.70;;;;;;;19.92;36.87;100467.73;129463;1261;114940;-72
2023/04/21 10:39:30;;;;;;;8.10;6.50;;;;;;;19.87;37.72;100466.36;129432;1281;128311;-73
2023/04/21 10:42:35;;;;;;;8.30;7.20;;;;;;;19.86;37.75;100462.73;129654;1281;115192;-71
2023/04/21 10:45:37;;;;;;;19.80;7.90;;;;;;;19.91;38.08;100456.02;129376;1267;114810;-72
2023/04/21 10:48:40;;;;;;;7.40;6.00;;;;;;;20.01;37.08;100463.73;129506;1274;114700;-71
2023/04/21 10:55:00;;;;;;;10.50;6.60;;;;;;;19.91;36.33;100451.32;129482;1281;128859;-70
2023/04/21 10:58:06;;;;;;;11.90;6.40;;;;;;;19.96;36.42;100453.61;129463;1281;114841;-67
2023/04/21 11:01:11;;;;;;;7.60;5.70;;;;;;;20.00;35.84;100450.01;129457;1264;114812;-69
2023/04/21 11:04:18;;;;;;;10.60;6.20;;;;;;;20.01;36.04;100443.75;129419;1264;114815;-70
2023/04/21 11:07:22;;;;;;;7.50;5.70;;;;;;;19.99;34.71;100446.46;129261;1268;114765;-70
2023/04/21 11:10:24;;;;;;;9.50;6.30;;;;;;;19.92;34.62;100440.02;129753;1276;127856;-69
2023/04/21 11:13:33;;;;;;;9.10;5.60;;;;;;;19.85;34.40;100436.98;129463;1266;115354;-68
2023/04/21 11:16:36;;;;;;;6.20;5.50;;;;;;;19.80;34.31;100433.35;129357;1266;115093;-67
2023/04/21 11:19:42;;;;;;;9.20;5.40;;;;;;;19.77;33.16;100430.92;129483;1261;114970;-67
2023/04/21 11:22:51;;;;;;;13.20;6.70;;;;;;;19.70;33.71;100430.78;129373;1266;114818;-67
2023/04/21 11:25:58;;;;;;;9.20;6.10;;;;;;;19.73;34.39;100431.07;129499;1281;128785;-70
2023/04/21 11:29:05;;;;;;;11.40;7.10;;;;;;;19.74;34.25;100429.34;129350;1281;115248;-70
2023/04/21 11:32:08;;;;;;;9.10;6.50;;;;;;;19.72;34.21;100422.82;129596;1262;114756;-70
2023/04/21 11:35:10;;;;;;;8.00;6.50;;;;;;;19.71;34.19;100424.56;129498;1275;114746;-69
2023/04/21 11:38:14;;;;;;;12.50;6.30;;;;;;;19.71;34.08;100421.84;129507;1261;114748;-69
2023/04/21 11:41:21;;;;;;;9.20;7.00;;;;;;;19.69;34.04;100423.27;129576;1273;115325;-70
2023/04/21 11:44:41;;;;;;;10.30;6.80;;;;;;;19.68;34.23;100413.53;129593;1281;114831;-67
2023/04/21 11:47:43;;;;;;;11.50;7.20;;;;;;;19.68;34.78;100412.36;129371;1260;114796;-70
2023/04/21 11:50:47;;;;;;;7.90;6.70;;;;;;;19.68;34.89;100406.02;129528;1278;114805;-69
2023/04/21 11:53:49;;;;;;;12.70;7.60;;;;;;;19.64;34.31;100410.30;129887;1281;114798;-67
2023/04/21 11:56:53;;;;;;;10.30;6.80;;;;;;;19.56;34.59;100409.53;129469;1281;127941;-66
2023/04/21 12:00:00;;;;;;;11.20;7.40;;;;;;;19.52;34.71;100406.27;129694;1261;116349;-72
2023/04/21 12:03:09;;;;;;;8.30;6.40;;;;;;;19.48;34.60;100404.75;129333;1264;114725;-68
2023/04/21 12:06:19;;;;;;;10.70;7.10;;;;;;;19.42;34.39;100399.11;129323;1281;114816;-70
2023/04/21 12:09:22;;;;;;;9.00;6.50;;;;;;;19.38;34.52;100394.91;129443;1281;114724;-67
2023/04/21 12:12:24;;;;;;;8.60;5.70;;;;;;;19.35;34.06;100401.36;129453;1278;114801;-69
2023/04/21 12:15:28;;;;;;;9.90;6.20;;;;;;;19.32;33.66;100398.05;129527;1271;114767;-67
2023/04/21 12:18:32;;;;;;;9.10;5.80;;;;;;;19.26;33.65;100392.33;129541;1281;114702;-68
2023/04/21 12:21:38;;;;;;;8.10;6.40;;;;;;;19.26;34.18;100390.37;129635;1265;114761;-67
2023/04/21 12:24:42;;;;;;;8.10;6.20;;;;;;;19.26;33.99;100389.63;129600;1261;114721;-68
2023/04/21 12:27:51;;;;;;;11.00;6.10;;;;;;;19.27;33.85;100383.95;129666;1281;127507;-70
2023/04/21 12:30:54;;;;;;;6.70;5.40;;;;;;;19.32;34.60;100378.75;129615;1263;115238;-66
2023/04/21 12:33:56;;;;;;;8.20;5.90;;;;;;;19.38;33.57;100381.88;129511;1261;114715;-70
2023/04/21 12:36:59;;;;;;;7.00;5.50;;;;;;;19.39;33.32;100381.06;129673;1261;114726;-67
2023/04/21 12:40:06;;;;;;;13.80;6.90;;;;;;;19.45;33.56;100378.91;129387;1266;115331;-67
2023/04/21 12:43:09;;;;;;;9.40;6.20;;;;;;;19.54;33.70;100374.71;129283;1263;127222;-69
2023/04/21 12:46:12;;;;;;;11.70;5.50;;;;;;;19.58;33.83;100371.81;129571;1261;114741;-66
2023/04/21 12:49:16;;;;;;;7.60;5.60;;;;;;;19.61;33.21;100376.99;129605;1261;115130;-65
2023/04/21 12:52:18;;;;;;;8.50;5.90;;;;;;;19.53;32.45;100377.73;129439;1259;114907;-68
2023/04/21 12:55:21;;;;;;;11.90;6.90;;;;;;;19.40;32.66;100377.92;129486;1265;114804;-66
2023/04/21 12:58:24;;;;;;;9.40;6.20;;;;;;;19.28;32.94;100373.89;129579;1271;114734;-69
2023/04/21 13:01:27;;;;;;;9.00;7.00;;;;;;;19.21;33.22;100371.20;129496;1260;114746;-67
2023/04/21 13:04:30;;;;;;;8.40;6.80;;;;;;;19.16;33.61;100367.07;129755;1258;115088;-68
2023/04/21 13:07:33;;;;;;;10.90;7.50;;;;;;;19.12;33.97;100363.29;129496;1262;114695;-64
2023/04/21 13:10:36;;;;;;;7.50;6.30;;;;;;;19.09;33.88;100358.98;129548;1261;114735;-69
2023/04/21 13:13:39;;;;;;;9.10;7.10;;;;;;;19.08;33.62;100359.09;129427;1262;115095;-67
2023/04/21 13:16:44;;;;;;;11.60;7.20;;;;;;;19.09;34.18;100360.23;129532;1275;114735;-67
2023/04/21 13:19:47;;;;;;;10.00;6.60;;;;;;;19.14;34.41;100351.36;129578;1274;115202;-66
2023/04/21 13:22:49;;;;;;;8.80;6.30;;;;;;;19.20;34.50;100350.88;129241;1263;731849;-68
2023/04/21 13:25:52;;;;;;;11.80;5.90;;;;;;;19.25;34.02;100348.02;129654;1260;115329;-69
2023/04/21 13:28:55;;;;;;;6.40;5.30;;;;;;;19.31;34.14;100342.17;130120;1262;114686;-66
2023/04/21 13:31:57;;;;;;;8.50;6.30;;;;;;;19.36;34.21;100339.48;130946;1260;114755;-64
2023/04/21 13:35:03;;;;;;;10.20;5.90;;;;;;;19.37;33.86;100335.23;130519;1267;127289;-67
2023/04/21 13:38:12;;;;;;;10.30;6.60;;;;;;;19.39;33.79;100333.64;129725;1262;115181;-70
2023/04/21 13:41:14;;;;;;;7.20;5.70;;;;;;;19.43;33.86;100329.48;129829;1281;114777;-71
2023/04/21 13:44:18;;;;;;;13.40;7.40;;;;;;;19.49;34.05;100327.67;129792;1271;115173;-68